createdAt,value
2023-01-30T00:07:07.583Z,1009.75
2023-01-30T00:22:08.131Z,1009.34
2023-01-30T00:37:09.172Z,1008.50
2023-01-30T00:52:09.969Z,1008.28
2023-01-30T01:07:10.972Z,1007.34
2023-01-30T01:22:11.067Z,1007.15
2023-01-30T01:37:11.645Z,1007.52
2023-01-30T01:52:12.669Z,1007.00
2023-01-30T02:07:13.267Z,1006.37
2023-01-30T02:22:12.996Z,1005.99
2023-01-30T02:37:13.575Z,1005.65
2023-01-30T02:52:14.183Z,1005.41
2023-01-30T03:07:14.275Z,1005.17
2023-01-30T03:22:14.385Z,1004.98
2023-01-30T03:37:14.968Z,1004.54
2023-01-30T03:52:15.496Z,1004.15
2023-01-30T04:07:15.181Z,1003.96
2023-01-30T04:22:16.229Z,1003.78
2023-01-30T04:37:16.802Z,1003.57
2023-01-30T04:52:17.012Z,1003.39
2023-01-30T05:07:17.604Z,1003.14
2023-01-30T05:22:17.701Z,1003.08
2023-01-30T05:37:18.302Z,1002.67
2023-01-30T05:52:19.346Z,1002.47
2023-01-30T06:07:19.514Z,1002.46
2023-01-30T06:22:20.226Z,1002.28
2023-01-30T06:37:20.702Z,1002.23
2023-01-30T06:52:20.822Z,1002.11
2023-01-30T07:07:21.328Z,1001.94
2023-01-30T07:22:21.552Z,1002.01
2023-01-30T07:37:22.126Z,1002.02
2023-01-30T07:52:22.722Z,1002.18
2023-01-30T08:07:22.799Z,1002.13
2023-01-30T08:22:23.434Z,1002.03
2023-01-30T08:37:24.021Z,1002.16
2023-01-30T08:52:24.139Z,1002.19
2023-01-30T09:07:24.641Z,1002.31
2023-01-30T09:22:26.334Z,1002.31
2023-01-30T09:37:26.836Z,1002.27
2023-01-30T09:52:26.517Z,1002.25
2023-01-30T10:07:27.139Z,1002.27
2023-01-30T10:22:27.216Z,1002.29
2023-01-30T10:37:28.202Z,1002.19
2023-01-30T10:52:27.898Z,1001.90
2023-01-30T11:07:28.377Z,1001.60
2023-01-30T11:22:28.511Z,1001.32
2023-01-30T11:37:28.164Z,1001.18
2023-01-30T11:52:29.210Z,1001.17
2023-01-30T12:07:29.364Z,1001.11
2023-01-30T12:22:29.973Z,1000.78
2023-01-30T12:37:30.431Z,1000.41
2023-01-30T12:52:31.161Z,1000.17
2023-01-30T13:07:32.653Z,1000.22
2023-01-30T13:22:32.824Z,1000.08
2023-01-30T13:37:32.885Z,1000.24
2023-01-30T13:52:33.730Z,1000.54
2023-01-30T14:07:34.146Z,1000.90
2023-01-30T14:22:34.286Z,1001.20
2023-01-30T14:37:35.317Z,1001.56
2023-01-30T14:52:34.988Z,1001.84
2023-01-30T15:07:35.983Z,1001.80
2023-01-30T15:22:37.636Z,1001.98
2023-01-30T15:37:37.801Z,1001.97
2023-01-30T15:52:38.810Z,1002.00
2023-01-30T16:07:39.403Z,1002.39
2023-01-30T16:22:40.019Z,1002.72
2023-01-30T16:37:40.604Z,1002.97
2023-01-30T16:52:40.300Z,1003.21
2023-01-30T17:07:40.387Z,1003.57
2023-01-30T17:22:40.998Z,1003.79
2023-01-30T17:37:43.928Z,1004.15
2023-01-30T17:52:44.390Z,1004.23
2023-01-30T18:07:44.845Z,1004.76
2023-01-30T18:22:45.514Z,1005.12
2023-01-30T18:37:46.039Z,1005.41
2023-01-30T18:52:47.058Z,1005.82
2023-01-30T19:07:46.754Z,1006.17
2023-01-30T19:22:47.292Z,1006.50
2023-01-30T19:37:47.452Z,1006.76
2023-01-30T19:52:48.184Z,1007.02
2023-01-30T20:07:49.072Z,1007.53
2023-01-30T20:22:49.690Z,1007.77
2023-01-30T20:37:49.873Z,1007.96
2023-01-30T20:52:50.889Z,1008.40
2023-01-30T21:07:51.092Z,1008.30
2023-01-30T21:22:51.801Z,1008.67
2023-01-30T21:37:51.807Z,1009.00
2023-01-30T21:52:52.437Z,1009.21
2023-01-30T22:07:53.012Z,1009.32
2023-01-30T22:22:53.844Z,1009.64
2023-01-30T22:37:54.250Z,1009.86
2023-01-30T22:52:55.332Z,1009.91
2023-01-30T23:07:56.346Z,1009.94
2023-01-30T23:22:56.531Z,1010.23
2023-01-30T23:37:57.642Z,1010.45
2023-01-30T23:52:58.687Z,1010.54
